AUA8K KJFK-LOWW
Flight info
| Callsign | AUA8K |
|---|---|
| Flight time | 5h 27m |
| Altitude | 37000 |
| Route | HAPIE DCT YAHOO DCT WHALE N59E NANSO/M084F390 N59E RAFIN NATV ELSOX/N0474F390 DCT LEDGO/N0485F410 DCT OXLOW DCT KONAN DCT KOK DCT DENOX DCT MATUG DCT GUBAX DCT BARSU DCT EKSOS DCT LULAR DCT RUDAP DCT BUDEX BUDEX2W |
| Aircraft | B789/H-SDE1E2E3FGHIJ2J3J4J5M1RWXY/LB1D1 |
Departure
| Time | 2026-05-05 03:34 |
|---|---|
| Airport | John F. Kennedy International Airport (KJFK) |
Arrival
| Time | 2026-05-05 09:02 |
|---|---|
| Airport | Vienna International Airport (LOWW) |
| Time | Latitude | Longitude | Altitude | Speed | Heading |
|---|---|---|---|---|---|
| 2026-05-05 02:59 | 40.64352 | -73.79215 | 31 ft | 0 kts | 57° |
| 2026-05-05 03:11 | 40.64349 | -73.79220 | 26 ft | 3 kts | 52° |
| 2026-05-05 03:12 | 40.64333 | -73.79240 | 31 ft | 3 kts | 30° |
| 2026-05-05 03:12 | 40.64318 | -73.79247 | 31 ft | 2 kts | 355° |
| 2026-05-05 03:12 | 40.64305 | -73.79241 | 31 ft | 2 kts | 323° |
| 2026-05-05 03:12 | 40.64297 | -73.79231 | 31 ft | 2 kts | 306° |
| 2026-05-05 03:13 | 40.64293 | -73.79223 | 31 ft | 0 kts | 300° |
| 2026-05-05 03:16 | 40.64296 | -73.79230 | 31 ft | 2 kts | 297° |
| 2026-05-05 03:16 | 40.64305 | -73.79263 | 31 ft | 5 kts | 286° |
| 2026-05-05 03:16 | 40.64297 | -73.79299 | 31 ft | 5 kts | 241° |
| 2026-05-05 03:17 | 40.64273 | -73.79342 | 30 ft | 7 kts | 232° |
| 2026-05-05 03:17 | 40.64247 | -73.79382 | 31 ft | 8 kts | 229° |
| 2026-05-05 03:17 | 40.64245 | -73.79385 | 31 ft | 0 kts | 229° |
| 2026-05-05 03:17 | 40.64244 | -73.79388 | 31 ft | 2 kts | 228° |
| 2026-05-05 03:18 | 40.64236 | -73.79399 | 29 ft | 0 kts | 234° |
| 2026-05-05 03:18 | 40.64236 | -73.79400 | 29 ft | 0 kts | 236° |
| 2026-05-05 03:19 | 40.64210 | -73.79453 | 30 ft | 6 kts | 238° |
| 2026-05-05 03:19 | 40.64184 | -73.79487 | 31 ft | 5 kts | 213° |
| 2026-05-05 03:19 | 40.64139 | -73.79501 | 31 ft | 9 kts | 181° |
| 2026-05-05 03:20 | 40.64073 | -73.79470 | 31 ft | 12 kts | 142° |
| 2026-05-05 03:20 | 40.64016 | -73.79372 | 28 ft | 15 kts | 121° |
| 2026-05-05 03:20 | 40.63966 | -73.79258 | 31 ft | 14 kts | 119° |
| 2026-05-05 03:20 | 40.63917 | -73.79148 | 30 ft | 14 kts | 121° |
| 2026-05-05 03:21 | 40.63867 | -73.79034 | 30 ft | 15 kts | 118° |
| 2026-05-05 03:21 | 40.63809 | -73.78918 | 29 ft | 16 kts | 119° |
| 2026-05-05 03:21 | 40.63752 | -73.78787 | 26 ft | 17 kts | 120° |
| 2026-05-05 03:21 | 40.63692 | -73.78647 | 27 ft | 18 kts | 120° |
| 2026-05-05 03:22 | 40.63624 | -73.78498 | 27 ft | 20 kts | 123° |
| 2026-05-05 03:22 | 40.63550 | -73.78338 | 26 ft | 21 kts | 120° |
| 2026-05-05 03:22 | 40.63475 | -73.78173 | 29 ft | 21 kts | 123° |
| 2026-05-05 03:22 | 40.63412 | -73.78018 | 31 ft | 18 kts | 101° |
| 2026-05-05 03:23 | 40.63449 | -73.77880 | 31 ft | 16 kts | 45° |
| 2026-05-05 03:23 | 40.63544 | -73.77798 | 30 ft | 17 kts | 30° |
| 2026-05-05 03:23 | 40.63644 | -73.77720 | 27 ft | 17 kts | 31° |
| 2026-05-05 03:23 | 40.63746 | -73.77642 | 28 ft | 17 kts | 31° |
| 2026-05-05 03:24 | 40.63850 | -73.77562 | 27 ft | 17 kts | 32° |
| 2026-05-05 03:24 | 40.63954 | -73.77481 | 31 ft | 17 kts | 29° |
| 2026-05-05 03:24 | 40.64059 | -73.77397 | 30 ft | 18 kts | 31° |
| 2026-05-05 03:24 | 40.64164 | -73.77313 | 31 ft | 18 kts | 31° |
| 2026-05-05 03:25 | 40.64272 | -73.77229 | 28 ft | 18 kts | 30° |
| 2026-05-05 03:25 | 40.64382 | -73.77145 | 28 ft | 18 kts | 30° |
| 2026-05-05 03:25 | 40.64427 | -73.77050 | 29 ft | 11 kts | 63° |
| 2026-05-05 03:25 | 40.64480 | -73.76998 | 30 ft | 9 kts | 14° |
| 2026-05-05 03:26 | 40.64546 | -73.76989 | 30 ft | 10 kts | 2° |
| 2026-05-05 03:26 | 40.64618 | -73.76980 | 28 ft | 8 kts | 31° |
| 2026-05-05 03:26 | 40.64678 | -73.76926 | 30 ft | 8 kts | 27° |
| 2026-05-05 03:26 | 40.64700 | -73.76923 | 29 ft | 3 kts | 5° |
| 2026-05-05 03:27 | 40.64736 | -73.76920 | 26 ft | 7 kts | 357° |
| 2026-05-05 03:27 | 40.64789 | -73.76939 | 27 ft | 8 kts | 336° |
| 2026-05-05 03:27 | 40.64846 | -73.76970 | 27 ft | 10 kts | 356° |
| 2026-05-05 03:27 | 40.64909 | -73.76917 | 27 ft | 13 kts | 58° |
| 2026-05-05 03:28 | 40.64966 | -73.76816 | 27 ft | 13 kts | 53° |
| 2026-05-05 03:28 | 40.64988 | -73.76751 | 27 ft | 5 kts | 89° |
| 2026-05-05 03:28 | 40.64977 | -73.76708 | 26 ft | 6 kts | 114° |
| 2026-05-05 03:28 | 40.64973 | -73.76654 | 27 ft | 8 kts | 72° |
| 2026-05-05 03:29 | 40.65011 | -73.76599 | 27 ft | 8 kts | 37° |
| 2026-05-05 03:29 | 40.65067 | -73.76556 | 27 ft | 10 kts | 30° |
| 2026-05-05 03:29 | 40.65099 | -73.76489 | 27 ft | 7 kts | 91° |
| 2026-05-05 03:29 | 40.65082 | -73.76438 | 28 ft | 5 kts | 120° |
| 2026-05-05 03:30 | 40.65060 | -73.76389 | 28 ft | 7 kts | 127° |
| 2026-05-05 03:30 | 40.65027 | -73.76369 | 28 ft | 4 kts | 174° |
| 2026-05-05 03:30 | 40.64994 | -73.76377 | 28 ft | 5 kts | 205° |
| 2026-05-05 03:30 | 40.64976 | -73.76391 | 28 ft | 0 kts | 210° |
| 2026-05-05 03:32 | 40.64976 | -73.76392 | 28 ft | 0 kts | 210° |
| 2026-05-05 03:33 | 40.64963 | -73.76401 | 27 ft | 9 kts | 210° |
| 2026-05-05 03:33 | 40.64803 | -73.76525 | 27 ft | 51 kts | 210° |
| 2026-05-05 03:33 | 40.64329 | -73.76889 | 30 ft | 105 kts | 211° |
| 2026-05-05 03:33 | 40.63560 | -73.77489 | 28 ft | 151 kts | 210° |
| 2026-05-05 03:34 | 40.62563 | -73.78242 | 268 ft | 169 kts | 204° |
| 2026-05-05 03:34 | 40.61545 | -73.78972 | 1023 ft | 170 kts | 206° |
| 2026-05-05 03:34 | 40.60499 | -73.79710 | 1887 ft | 168 kts | 210° |
| 2026-05-05 03:34 | 40.59394 | -73.80468 | 2390 ft | 193 kts | 204° |
| 2026-05-05 03:35 | 40.57996 | -73.80936 | 2869 ft | 222 kts | 192° |
| 2026-05-05 03:35 | 40.56343 | -73.81003 | 3474 ft | 249 kts | 179° |
| 2026-05-05 03:35 | 40.54628 | -73.80583 | 4577 ft | 256 kts | 169° |
| 2026-05-05 03:35 | 40.52922 | -73.79704 | 5537 ft | 269 kts | 158° |
| 2026-05-05 03:36 | 40.51296 | -73.78397 | 6468 ft | 279 kts | 149° |
| 2026-05-05 03:36 | 40.49703 | -73.76896 | 7419 ft | 285 kts | 148° |
| 2026-05-05 03:36 | 40.48092 | -73.75336 | 8340 ft | 290 kts | 146° |
| 2026-05-05 03:36 | 40.46719 | -73.73387 | 9211 ft | 300 kts | 126° |
| 2026-05-05 03:37 | 40.45948 | -73.70799 | 10099 ft | 306 kts | 97° |
| 2026-05-05 03:37 | 40.45689 | -73.67965 | 10482 ft | 330 kts | 99° |
| 2026-05-05 03:37 | 40.45334 | -73.64866 | 10724 ft | 357 kts | 98° |
| 2026-05-05 03:37 | 40.45005 | -73.61584 | 11461 ft | 364 kts | 97° |
| 2026-05-05 03:38 | 40.44699 | -73.58263 | 12308 ft | 370 kts | 97° |
| 2026-05-05 03:38 | 40.44374 | -73.54893 | 13130 ft | 375 kts | 98° |
| 2026-05-05 03:38 | 40.44029 | -73.51470 | 13943 ft | 381 kts | 98° |
| 2026-05-05 03:38 | 40.43682 | -73.47992 | 14690 ft | 386 kts | 98° |
| 2026-05-05 03:39 | 40.43336 | -73.44479 | 15441 ft | 390 kts | 98° |
| 2026-05-05 03:39 | 40.42985 | -73.40931 | 16179 ft | 395 kts | 98° |
| 2026-05-05 03:39 | 40.42627 | -73.37345 | 16908 ft | 399 kts | 98° |
| 2026-05-05 03:39 | 40.42261 | -73.33710 | 17626 ft | 404 kts | 98° |
| 2026-05-05 03:40 | 40.41893 | -73.30038 | 18338 ft | 408 kts | 98° |
| 2026-05-05 03:40 | 40.41520 | -73.26334 | 18979 ft | 411 kts | 97° |
| 2026-05-05 03:40 | 40.41143 | -73.22600 | 19626 ft | 414 kts | 97° |
| 2026-05-05 03:40 | 40.40762 | -73.18847 | 20253 ft | 417 kts | 97° |
| 2026-05-05 03:41 | 40.40377 | -73.15068 | 20868 ft | 420 kts | 97° |
| 2026-05-05 03:41 | 40.39988 | -73.11252 | 21461 ft | 423 kts | 97° |
| 2026-05-05 03:41 | 40.39595 | -73.07416 | 22033 ft | 426 kts | 97° |
| 2026-05-05 03:41 | 40.39198 | -73.03558 | 22598 ft | 429 kts | 97° |
| 2026-05-05 03:42 | 40.38880 | -72.99673 | 23120 ft | 431 kts | 88° |
| 2026-05-05 03:42 | 40.39233 | -72.95769 | 23651 ft | 431 kts | 73° |
| 2026-05-05 03:42 | 40.40072 | -72.91984 | 24031 ft | 434 kts | 72° |
| 2026-05-05 03:42 | 40.40934 | -72.88183 | 24493 ft | 436 kts | 71° |
| 2026-05-05 03:43 | 40.41806 | -72.84360 | 24923 ft | 438 kts | 71° |
| 2026-05-05 03:43 | 40.42675 | -72.80509 | 25349 ft | 441 kts | 72° |
| 2026-05-05 03:43 | 40.43543 | -72.76637 | 25763 ft | 443 kts | 72° |
| 2026-05-05 03:43 | 40.44415 | -72.72754 | 26152 ft | 445 kts | 71° |
| 2026-05-05 03:44 | 40.45295 | -72.68843 | 26555 ft | 448 kts | 71° |
| 2026-05-05 03:44 | 40.46177 | -72.64904 | 26947 ft | 450 kts | 71° |
| 2026-05-05 03:44 | 40.47059 | -72.60955 | 27321 ft | 452 kts | 71° |
| 2026-05-05 03:44 | 40.47946 | -72.56978 | 27707 ft | 455 kts | 71° |
| 2026-05-05 03:45 | 40.48835 | -72.52990 | 28071 ft | 457 kts | 71° |
| 2026-05-05 03:45 | 40.49730 | -72.48969 | 28436 ft | 459 kts | 71° |
| 2026-05-05 03:45 | 40.50626 | -72.44931 | 28793 ft | 461 kts | 71° |
| 2026-05-05 03:45 | 40.51523 | -72.40882 | 29127 ft | 463 kts | 71° |
| 2026-05-05 03:46 | 40.52425 | -72.36805 | 29478 ft | 465 kts | 71° |
| 2026-05-05 03:46 | 40.53329 | -72.32710 | 29816 ft | 467 kts | 71° |
| 2026-05-05 03:46 | 40.54236 | -72.28595 | 30125 ft | 470 kts | 71° |
| 2026-05-05 03:46 | 40.55144 | -72.24463 | 30394 ft | 471 kts | 71° |
| 2026-05-05 03:47 | 40.56056 | -72.20311 | 30654 ft | 473 kts | 71° |
| 2026-05-05 03:47 | 40.56957 | -72.16195 | 30925 ft | 475 kts | 71° |
| 2026-05-05 03:47 | 40.57859 | -72.12071 | 31182 ft | 477 kts | 71° |
| 2026-05-05 03:47 | 40.58765 | -72.07922 | 31437 ft | 478 kts | 71° |
| 2026-05-05 03:48 | 40.59683 | -72.03708 | 31692 ft | 480 kts | 71° |
| 2026-05-05 03:48 | 40.60603 | -71.99475 | 31943 ft | 482 kts | 71° |
| 2026-05-05 03:48 | 40.61525 | -71.95230 | 32183 ft | 483 kts | 71° |
| 2026-05-05 03:48 | 40.62448 | -71.90965 | 32424 ft | 485 kts | 71° |
| 2026-05-05 03:49 | 40.63372 | -71.86689 | 32654 ft | 486 kts | 71° |
| 2026-05-05 03:49 | 40.64299 | -71.82393 | 32886 ft | 488 kts | 71° |
| 2026-05-05 03:49 | 40.65227 | -71.78083 | 33113 ft | 490 kts | 71° |
| 2026-05-05 03:49 | 40.66152 | -71.73780 | 33347 ft | 491 kts | 71° |
| 2026-05-05 03:50 | 40.67085 | -71.69426 | 33565 ft | 493 kts | 71° |
| 2026-05-05 03:50 | 40.68015 | -71.65080 | 33785 ft | 494 kts | 71° |
| 2026-05-05 03:50 | 40.68948 | -71.60710 | 33980 ft | 495 kts | 71° |
| 2026-05-05 03:50 | 40.69879 | -71.56343 | 34154 ft | 497 kts | 71° |
| 2026-05-05 03:51 | 40.70815 | -71.51938 | 34292 ft | 499 kts | 71° |
| 2026-05-05 03:51 | 40.71752 | -71.47528 | 34427 ft | 501 kts | 71° |
| 2026-05-05 03:51 | 40.72691 | -71.43090 | 34599 ft | 502 kts | 71° |
| 2026-05-05 03:51 | 40.73629 | -71.38653 | 34796 ft | 503 kts | 71° |
| 2026-05-05 03:52 | 40.74569 | -71.34194 | 34967 ft | 504 kts | 71° |
| 2026-05-05 03:52 | 40.75496 | -71.29791 | 35141 ft | 505 kts | 72° |
| 2026-05-05 03:52 | 40.76447 | -71.25261 | 35328 ft | 506 kts | 72° |
| 2026-05-05 03:52 | 40.77373 | -71.20845 | 35499 ft | 507 kts | 72° |
| 2026-05-05 03:53 | 40.78312 | -71.16357 | 35659 ft | 508 kts | 72° |
| 2026-05-05 03:53 | 40.79249 | -71.11866 | 35860 ft | 509 kts | 72° |
| 2026-05-05 03:53 | 40.80188 | -71.07356 | 36017 ft | 510 kts | 72° |
| 2026-05-05 03:53 | 40.81127 | -71.02837 | 36190 ft | 511 kts | 72° |
| 2026-05-05 03:54 | 40.82064 | -70.98317 | 36357 ft | 511 kts | 72° |
| 2026-05-05 03:54 | 40.83003 | -70.93778 | 36517 ft | 513 kts | 72° |
| 2026-05-05 03:54 | 40.83943 | -70.89225 | 36689 ft | 513 kts | 72° |
| 2026-05-05 03:54 | 40.84881 | -70.84671 | 36857 ft | 514 kts | 73° |
| 2026-05-05 03:55 | 40.85820 | -70.80104 | 37010 ft | 515 kts | 73° |
| 2026-05-05 03:55 | 40.86756 | -70.75540 | 37082 ft | 518 kts | 73° |
| 2026-05-05 03:55 | 40.88636 | -70.66338 | 37080 ft | 518 kts | 73° |
| 2026-05-05 03:56 | 40.90504 | -70.57160 | 37079 ft | 516 kts | 73° |
| 2026-05-05 03:56 | 40.92362 | -70.47986 | 37086 ft | 516 kts | 73° |
| 2026-05-05 03:57 | 40.94213 | -70.38809 | 37082 ft | 517 kts | 73° |
| 2026-05-05 03:57 | 40.96060 | -70.29608 | 37090 ft | 518 kts | 73° |
| 2026-05-05 03:58 | 40.97891 | -70.20447 | 37090 ft | 519 kts | 73° |
| 2026-05-05 03:58 | 40.99739 | -70.11158 | 37092 ft | 519 kts | 73° |
| 2026-05-05 03:59 | 41.01561 | -70.01959 | 37101 ft | 520 kts | 73° |
| 2026-05-05 03:59 | 41.03386 | -69.92703 | 37098 ft | 520 kts | 73° |
| 2026-05-05 04:00 | 41.05202 | -69.83448 | 37094 ft | 519 kts | 73° |
| 2026-05-05 04:00 | 41.07209 | -69.74276 | 37121 ft | 515 kts | 62° |
| 2026-05-05 04:01 | 41.10636 | -69.65968 | 37088 ft | 514 kts | 57° |
| 2026-05-05 04:01 | 41.14180 | -69.57729 | 37085 ft | 515 kts | 58° |
| 2026-05-05 04:02 | 41.17692 | -69.49482 | 37086 ft | 512 kts | 57° |
| 2026-05-05 04:02 | 41.21212 | -69.41239 | 37106 ft | 514 kts | 58° |
| 2026-05-05 04:03 | 41.24724 | -69.32962 | 37103 ft | 515 kts | 58° |
| 2026-05-05 04:03 | 41.28240 | -69.24669 | 37113 ft | 515 kts | 58° |
| 2026-05-05 04:04 | 41.31752 | -69.16353 | 37109 ft | 515 kts | 58° |
| 2026-05-05 04:04 | 41.35261 | -69.08028 | 37109 ft | 516 kts | 58° |
| 2026-05-05 04:05 | 41.38772 | -68.99671 | 37117 ft | 517 kts | 58° |
| 2026-05-05 04:05 | 41.42272 | -68.91316 | 37119 ft | 517 kts | 58° |
| 2026-05-05 04:06 | 41.45776 | -68.82930 | 37111 ft | 518 kts | 58° |
| 2026-05-05 04:06 | 41.49254 | -68.74584 | 37101 ft | 518 kts | 58° |
| 2026-05-05 04:07 | 41.52748 | -68.66173 | 37105 ft | 518 kts | 58° |
| 2026-05-05 04:07 | 41.56238 | -68.57749 | 37111 ft | 519 kts | 58° |
| 2026-05-05 04:08 | 41.59727 | -68.49303 | 37113 ft | 519 kts | 58° |
| 2026-05-05 04:08 | 41.63206 | -68.40857 | 37111 ft | 519 kts | 58° |
| 2026-05-05 04:09 | 41.66685 | -68.32388 | 37114 ft | 520 kts | 58° |
| 2026-05-05 04:09 | 41.70158 | -68.23910 | 37109 ft | 520 kts | 58° |
| 2026-05-05 04:10 | 41.73633 | -68.15400 | 37113 ft | 521 kts | 58° |
| 2026-05-05 04:10 | 41.77102 | -68.06883 | 37104 ft | 521 kts | 58° |
| 2026-05-05 04:11 | 41.80563 | -67.98359 | 37107 ft | 521 kts | 58° |
| 2026-05-05 04:11 | 41.84005 | -67.89856 | 37105 ft | 522 kts | 58° |
| 2026-05-05 04:12 | 41.87458 | -67.81304 | 37113 ft | 522 kts | 58° |
| 2026-05-05 04:12 | 41.90909 | -67.72729 | 37104 ft | 522 kts | 58° |
| 2026-05-05 04:13 | 41.94350 | -67.64155 | 37106 ft | 522 kts | 58° |
| 2026-05-05 04:13 | 41.97785 | -67.55572 | 37104 ft | 522 kts | 58° |
| 2026-05-05 04:14 | 42.01219 | -67.46966 | 37103 ft | 522 kts | 58° |
| 2026-05-05 04:14 | 42.04647 | -67.38349 | 37100 ft | 522 kts | 58° |
| 2026-05-05 04:15 | 42.08069 | -67.29719 | 37103 ft | 522 kts | 59° |
| 2026-05-05 04:15 | 42.11460 | -67.21145 | 37105 ft | 523 kts | 59° |
| 2026-05-05 04:16 | 42.14877 | -67.12480 | 37106 ft | 523 kts | 59° |
| 2026-05-05 04:16 | 42.18284 | -67.03813 | 37103 ft | 524 kts | 59° |
| 2026-05-05 04:17 | 42.21178 | -66.94783 | 37098 ft | 528 kts | 68° |
| 2026-05-05 04:17 | 42.23643 | -66.85441 | 37100 ft | 529 kts | 68° |
| 2026-05-05 04:18 | 42.25705 | -66.77678 | 37105 ft | 529 kts | 68° |
| 2026-05-05 04:18 | 42.27843 | -66.69559 | 37097 ft | 529 kts | 68° |
| 2026-05-05 04:19 | 42.30305 | -66.60189 | 37099 ft | 529 kts | 68° |
| 2026-05-05 04:19 | 42.32760 | -66.50812 | 37114 ft | 529 kts | 69° |
| 2026-05-05 04:20 | 42.35191 | -66.41485 | 37105 ft | 530 kts | 69° |
| 2026-05-05 04:20 | 42.37654 | -66.32003 | 37108 ft | 530 kts | 69° |
| 2026-05-05 04:21 | 42.40063 | -66.22686 | 37106 ft | 531 kts | 69° |
| 2026-05-05 04:21 | 42.42522 | -66.13143 | 37107 ft | 531 kts | 69° |
| 2026-05-05 04:22 | 42.44945 | -66.03700 | 37103 ft | 531 kts | 69° |
| 2026-05-05 04:22 | 42.47347 | -65.94306 | 37111 ft | 531 kts | 69° |
| 2026-05-05 04:23 | 42.49761 | -65.84822 | 37102 ft | 532 kts | 69° |
| 2026-05-05 04:23 | 42.52166 | -65.75340 | 37107 ft | 532 kts | 70° |
| 2026-05-05 04:24 | 42.54565 | -65.65838 | 37102 ft | 533 kts | 70° |
| 2026-05-05 04:25 | 42.58157 | -65.51544 | 37097 ft | 534 kts | 70° |
| 2026-05-05 04:25 | 42.60546 | -65.41986 | 37102 ft | 534 kts | 70° |
| 2026-05-05 04:26 | 42.62929 | -65.32419 | 37103 ft | 535 kts | 70° |
| 2026-05-05 04:26 | 42.65304 | -65.22840 | 37103 ft | 535 kts | 70° |
| 2026-05-05 04:27 | 42.67671 | -65.13252 | 37086 ft | 535 kts | 70° |
| 2026-05-05 04:27 | 42.70033 | -65.03649 | 37086 ft | 536 kts | 70° |
| 2026-05-05 04:28 | 42.72391 | -64.94021 | 37097 ft | 537 kts | 71° |
| 2026-05-05 04:28 | 42.74743 | -64.84376 | 37097 ft | 538 kts | 71° |
| 2026-05-05 04:29 | 42.77076 | -64.74768 | 37103 ft | 538 kts | 71° |
| 2026-05-05 04:29 | 42.79418 | -64.65083 | 37101 ft | 539 kts | 71° |
| 2026-05-05 04:30 | 42.81755 | -64.55376 | 37098 ft | 540 kts | 71° |
| 2026-05-05 04:30 | 42.84088 | -64.45647 | 37099 ft | 540 kts | 71° |
| 2026-05-05 04:31 | 42.86415 | -64.35902 | 37099 ft | 541 kts | 71° |
| 2026-05-05 04:31 | 42.87570 | -64.31037 | 36974 ft | 539 kts | 70° |
| 2026-05-05 04:31 | 42.88711 | -64.26230 | 37093 ft | 529 kts | 70° |
| 2026-05-05 04:32 | 42.90977 | -64.16676 | 37088 ft | 531 kts | 70° |
| 2026-05-05 04:32 | 42.93240 | -64.07061 | 37096 ft | 533 kts | 71° |
| 2026-05-05 04:33 | 42.95503 | -63.97426 | 37099 ft | 533 kts | 71° |
| 2026-05-05 04:33 | 42.97757 | -63.87776 | 37097 ft | 533 kts | 71° |
| 2026-05-05 04:34 | 43.00007 | -63.78109 | 37096 ft | 534 kts | 71° |
| 2026-05-05 04:34 | 43.02246 | -63.68440 | 37098 ft | 534 kts | 71° |
| 2026-05-05 04:35 | 43.04473 | -63.58784 | 37098 ft | 534 kts | 71° |
| 2026-05-05 04:35 | 43.06706 | -63.49063 | 37096 ft | 535 kts | 71° |
| 2026-05-05 04:36 | 43.08913 | -63.39409 | 37094 ft | 536 kts | 72° |
| 2026-05-05 04:36 | 43.11131 | -63.29664 | 37085 ft | 536 kts | 72° |
| 2026-05-05 04:37 | 43.13341 | -63.19909 | 37091 ft | 538 kts | 72° |
| 2026-05-05 04:37 | 43.15538 | -63.10170 | 37084 ft | 538 kts | 72° |
| 2026-05-05 04:38 | 43.17737 | -63.00377 | 37093 ft | 538 kts | 72° |
| 2026-05-05 04:38 | 43.19928 | -62.90580 | 37090 ft | 538 kts | 72° |
| 2026-05-05 04:39 | 43.22114 | -62.80754 | 37088 ft | 539 kts | 72° |
| 2026-05-05 04:39 | 43.24295 | -62.70911 | 37087 ft | 540 kts | 73° |
| 2026-05-05 04:40 | 43.26472 | -62.61040 | 37088 ft | 540 kts | 73° |
| 2026-05-05 04:40 | 43.28639 | -62.51167 | 37089 ft | 541 kts | 73° |
| 2026-05-05 04:41 | 43.30798 | -62.41282 | 37087 ft | 542 kts | 73° |
| 2026-05-05 04:41 | 43.32944 | -62.31415 | 37084 ft | 542 kts | 73° |
| 2026-05-05 04:42 | 43.35097 | -62.21469 | 37088 ft | 543 kts | 73° |
| 2026-05-05 04:42 | 43.37240 | -62.11522 | 37089 ft | 544 kts | 73° |
| 2026-05-05 04:43 | 43.39376 | -62.01558 | 37080 ft | 544 kts | 74° |
| 2026-05-05 04:43 | 43.43130 | -61.83935 | 37080 ft | 546 kts | 74° |
| 2026-05-05 04:44 | 43.51595 | -61.43635 | 37076 ft | 549 kts | 75° |
| 2026-05-05 04:44 | 43.59900 | -61.03309 | 37066 ft | 552 kts | 75° |
| 2026-05-05 04:45 | 43.68221 | -60.62085 | 37051 ft | 554 kts | 75° |
| 2026-05-05 04:45 | 43.76364 | -60.20893 | 37035 ft | 557 kts | 76° |
| 2026-05-05 04:46 | 43.84397 | -59.79397 | 37038 ft | 559 kts | 76° |
| 2026-05-05 04:46 | 43.92317 | -59.37587 | 37042 ft | 561 kts | 77° |
| 2026-05-05 04:47 | 44.00052 | -58.95835 | 37002 ft | 563 kts | 77° |
| 2026-05-05 04:47 | 44.07681 | -58.53724 | 36993 ft | 564 kts | 78° |
| 2026-05-05 04:48 | 44.15211 | -58.11182 | 36988 ft | 565 kts | 78° |
| 2026-05-05 04:48 | 44.22566 | -57.68632 | 36985 ft | 566 kts | 78° |
| 2026-05-05 04:49 | 44.29779 | -57.25880 | 36985 ft | 566 kts | 79° |
| 2026-05-05 04:49 | 44.36837 | -56.82990 | 36987 ft | 567 kts | 79° |
| 2026-05-05 04:50 | 44.43743 | -56.39939 | 36983 ft | 568 kts | 80° |
| 2026-05-05 04:50 | 44.50075 | -55.96633 | 36996 ft | 566 kts | 86° |
| 2026-05-05 04:51 | 44.54831 | -55.52896 | 37001 ft | 568 kts | 85° |
| 2026-05-05 04:51 | 44.59412 | -55.09101 | 37003 ft | 568 kts | 85° |
| 2026-05-05 04:52 | 44.63841 | -54.65165 | 37018 ft | 569 kts | 85° |
| 2026-05-05 04:52 | 44.68110 | -54.21083 | 37028 ft | 572 kts | 86° |
| 2026-05-05 04:52 | 44.70183 | -53.99010 | 38166 ft | 566 kts | 85° |
| 2026-05-05 04:53 | 44.72195 | -53.77121 | 39043 ft | 563 kts | 85° |
| 2026-05-05 04:53 | 44.76103 | -53.33173 | 39043 ft | 564 kts | 86° |
| 2026-05-05 04:54 | 44.79824 | -52.89380 | 39056 ft | 564 kts | 86° |
| 2026-05-05 04:54 | 44.83357 | -52.45794 | 39068 ft | 563 kts | 86° |
| 2026-05-05 04:55 | 44.86744 | -52.01910 | 39076 ft | 564 kts | 87° |
| 2026-05-05 04:55 | 44.89955 | -51.57865 | 39087 ft | 565 kts | 87° |
| 2026-05-05 04:56 | 44.92990 | -51.13672 | 39094 ft | 566 kts | 88° |
| 2026-05-05 04:56 | 44.95859 | -50.69366 | 39104 ft | 568 kts | 88° |
| 2026-05-05 04:57 | 44.98566 | -50.24854 | 39110 ft | 570 kts | 88° |
| 2026-05-05 04:57 | 45.04849 | -49.81171 | 39149 ft | 575 kts | 71° |
| 2026-05-05 04:58 | 45.15363 | -49.38323 | 39134 ft | 577 kts | 71° |
| 2026-05-05 04:58 | 45.25806 | -48.95284 | 39128 ft | 578 kts | 71° |
| 2026-05-05 04:59 | 45.36121 | -48.52019 | 39135 ft | 578 kts | 72° |
| 2026-05-05 04:59 | 45.46201 | -48.08912 | 39136 ft | 579 kts | 72° |
| 2026-05-05 05:00 | 45.56262 | -47.65015 | 39141 ft | 577 kts | 72° |
| 2026-05-05 05:00 | 45.66015 | -47.21586 | 39148 ft | 575 kts | 73° |
| 2026-05-05 05:01 | 45.75652 | -46.77780 | 39150 ft | 574 kts | 73° |
| 2026-05-05 05:01 | 45.85069 | -46.34071 | 39153 ft | 574 kts | 73° |
| 2026-05-05 05:02 | 45.94322 | -45.90197 | 39163 ft | 574 kts | 74° |
| 2026-05-05 05:02 | 46.03422 | -45.46104 | 39167 ft | 576 kts | 74° |
| 2026-05-05 05:03 | 46.12361 | -45.01820 | 39170 ft | 575 kts | 75° |
| 2026-05-05 05:03 | 46.21124 | -44.57419 | 39169 ft | 576 kts | 75° |
| 2026-05-05 05:04 | 46.29685 | -44.13031 | 39176 ft | 578 kts | 75° |
| 2026-05-05 05:04 | 46.38136 | -43.68168 | 39177 ft | 577 kts | 75° |
| 2026-05-05 05:05 | 46.46404 | -43.23205 | 39170 ft | 578 kts | 75° |
| 2026-05-05 05:05 | 46.54523 | -42.77954 | 39176 ft | 579 kts | 75° |
| 2026-05-05 05:06 | 46.62461 | -42.32583 | 39174 ft | 578 kts | 76° |
| 2026-05-05 05:06 | 46.70192 | -41.87241 | 39177 ft | 576 kts | 76° |
| 2026-05-05 05:07 | 46.77736 | -41.41813 | 39169 ft | 576 kts | 76° |
| 2026-05-05 05:07 | 46.83581 | -41.05756 | 39169 ft | 576 kts | 76° |
| 2026-05-05 05:08 | 46.91957 | -40.52678 | 39176 ft | 574 kts | 76° |
| 2026-05-05 05:08 | 46.97765 | -40.14821 | 39164 ft | 569 kts | 77° |
| 2026-05-05 05:08 | 47.01775 | -39.92488 | 39168 ft | 564 kts | 65° |
| 2026-05-05 05:09 | 47.07231 | -39.70939 | 39170 ft | 561 kts | 67° |
| 2026-05-05 05:09 | 47.17875 | -39.28056 | 39156 ft | 557 kts | 68° |
| 2026-05-05 05:10 | 47.28240 | -38.85322 | 39162 ft | 551 kts | 69° |
| 2026-05-05 05:10 | 47.38320 | -38.42916 | 39180 ft | 546 kts | 69° |
| 2026-05-05 05:11 | 47.48185 | -38.00589 | 39195 ft | 543 kts | 70° |
| 2026-05-05 05:11 | 47.57816 | -37.58453 | 39212 ft | 537 kts | 70° |
| 2026-05-05 05:12 | 47.67194 | -37.16607 | 39228 ft | 533 kts | 71° |
| 2026-05-05 05:12 | 47.76365 | -36.74854 | 39243 ft | 531 kts | 72° |
| 2026-05-05 05:13 | 47.85369 | -36.33032 | 39256 ft | 529 kts | 72° |
| 2026-05-05 05:13 | 47.94172 | -35.91297 | 39268 ft | 527 kts | 72° |
| 2026-05-05 05:14 | 48.02791 | -35.49576 | 39280 ft | 525 kts | 72° |
| 2026-05-05 05:14 | 48.11223 | -35.07897 | 39289 ft | 523 kts | 72° |
| 2026-05-05 05:15 | 48.19482 | -34.66191 | 39303 ft | 521 kts | 73° |
| 2026-05-05 05:15 | 48.27572 | -34.24446 | 39318 ft | 521 kts | 73° |
| 2026-05-05 05:16 | 48.35500 | -33.82623 | 39334 ft | 521 kts | 73° |
| 2026-05-05 05:16 | 48.43280 | -33.40648 | 39341 ft | 521 kts | 73° |
| 2026-05-05 05:17 | 48.50862 | -32.98798 | 39354 ft | 521 kts | 72° |
| 2026-05-05 05:17 | 48.58379 | -32.56324 | 39367 ft | 520 kts | 72° |
| 2026-05-05 05:18 | 48.65638 | -32.14322 | 39368 ft | 519 kts | 72° |
| 2026-05-05 05:18 | 48.72773 | -31.72023 | 39383 ft | 517 kts | 72° |
| 2026-05-05 05:19 | 48.79719 | -31.29810 | 39394 ft | 515 kts | 72° |
| 2026-05-05 05:19 | 48.86490 | -30.87617 | 39389 ft | 513 kts | 72° |
| 2026-05-05 05:20 | 48.93037 | -30.45758 | 39403 ft | 509 kts | 72° |
| 2026-05-05 05:20 | 48.99477 | -30.03492 | 39402 ft | 506 kts | 72° |
| 2026-05-05 05:21 | 49.09052 | -29.64033 | 39408 ft | 500 kts | 63° |
| 2026-05-05 05:21 | 49.18787 | -29.24455 | 39413 ft | 502 kts | 63° |
| 2026-05-05 05:22 | 49.28549 | -28.84137 | 39417 ft | 502 kts | 64° |
| 2026-05-05 05:22 | 49.38127 | -28.43861 | 39418 ft | 503 kts | 64° |
| 2026-05-05 05:23 | 49.47577 | -28.03371 | 39418 ft | 504 kts | 64° |
| 2026-05-05 05:23 | 49.56911 | -27.62612 | 39419 ft | 505 kts | 65° |
| 2026-05-05 05:24 | 49.66109 | -27.21662 | 39419 ft | 504 kts | 66° |
| 2026-05-05 05:24 | 49.75142 | -26.80654 | 39421 ft | 504 kts | 66° |
| 2026-05-05 05:25 | 49.77688 | -26.68943 | 39422 ft | 503 kts | 66° |
| 2026-05-05 05:25 | 49.79909 | -26.58678 | 39422 ft | 503 kts | 67° |
| 2026-05-05 05:26 | 49.82122 | -26.48397 | 39417 ft | 503 kts | 67° |
| 2026-05-05 05:26 | 49.84326 | -26.38104 | 39421 ft | 503 kts | 67° |
| 2026-05-05 05:27 | 49.86519 | -26.27810 | 39408 ft | 503 kts | 67° |
| 2026-05-05 05:27 | 49.89788 | -26.12371 | 39414 ft | 503 kts | 68° |
| 2026-05-05 05:28 | 49.91958 | -26.02054 | 39418 ft | 503 kts | 68° |
| 2026-05-05 05:28 | 49.94117 | -25.91740 | 39413 ft | 502 kts | 68° |
| 2026-05-05 05:29 | 49.96253 | -25.81482 | 39416 ft | 503 kts | 68° |
| 2026-05-05 05:29 | 49.98394 | -25.71146 | 39416 ft | 503 kts | 68° |
| 2026-05-05 05:30 | 50.00527 | -25.60800 | 39414 ft | 503 kts | 68° |
| 2026-05-05 05:30 | 50.02651 | -25.50438 | 39411 ft | 503 kts | 68° |
| 2026-05-05 05:31 | 50.04767 | -25.40062 | 39413 ft | 504 kts | 69° |
| 2026-05-05 05:31 | 50.06866 | -25.29715 | 39411 ft | 503 kts | 69° |
| 2026-05-05 05:32 | 50.08976 | -25.19263 | 39411 ft | 503 kts | 69° |
| 2026-05-05 05:32 | 50.11065 | -25.08856 | 39409 ft | 503 kts | 69° |
| 2026-05-05 05:33 | 50.13121 | -24.98559 | 39408 ft | 503 kts | 69° |
| 2026-05-05 05:33 | 50.15214 | -24.88018 | 39406 ft | 504 kts | 69° |
| 2026-05-05 05:34 | 50.17275 | -24.77584 | 39404 ft | 503 kts | 69° |
| 2026-05-05 05:34 | 50.19314 | -24.67205 | 39402 ft | 503 kts | 70° |
| 2026-05-05 05:35 | 50.21338 | -24.56847 | 39405 ft | 503 kts | 70° |
| 2026-05-05 05:35 | 50.23397 | -24.46253 | 39406 ft | 503 kts | 70° |
| 2026-05-05 05:36 | 50.25418 | -24.35798 | 39403 ft | 503 kts | 70° |
| 2026-05-05 05:36 | 50.27416 | -24.25402 | 39403 ft | 503 kts | 70° |
| 2026-05-05 05:37 | 50.29405 | -24.15001 | 39403 ft | 502 kts | 70° |
| 2026-05-05 05:37 | 50.31406 | -24.04474 | 39397 ft | 502 kts | 70° |
| 2026-05-05 05:38 | 50.33389 | -23.93988 | 39396 ft | 503 kts | 70° |
| 2026-05-05 05:38 | 50.35363 | -23.83485 | 39397 ft | 503 kts | 71° |
| 2026-05-05 05:39 | 50.37306 | -23.73091 | 39400 ft | 503 kts | 71° |
| 2026-05-05 05:39 | 50.39284 | -23.62454 | 39386 ft | 503 kts | 71° |
| 2026-05-05 05:40 | 50.41228 | -23.51935 | 39387 ft | 502 kts | 71° |
| 2026-05-05 05:40 | 50.43160 | -23.41421 | 39388 ft | 502 kts | 71° |
| 2026-05-05 05:41 | 50.45075 | -23.30941 | 39389 ft | 502 kts | 71° |
| 2026-05-05 05:41 | 50.47001 | -23.20339 | 39386 ft | 503 kts | 71° |
| 2026-05-05 05:42 | 50.48907 | -23.09786 | 39390 ft | 502 kts | 71° |
| 2026-05-05 05:42 | 50.50801 | -22.99237 | 39384 ft | 501 kts | 71° |
| 2026-05-05 05:43 | 50.52683 | -22.88696 | 39392 ft | 501 kts | 72° |
| 2026-05-05 05:43 | 50.54557 | -22.78141 | 39388 ft | 501 kts | 72° |
| 2026-05-05 05:44 | 50.56408 | -22.67645 | 39387 ft | 501 kts | 72° |
| 2026-05-05 05:44 | 50.58262 | -22.57079 | 39386 ft | 501 kts | 72° |
| 2026-05-05 05:45 | 50.60104 | -22.46512 | 39388 ft | 501 kts | 72° |
| 2026-05-05 05:45 | 50.61922 | -22.36022 | 39380 ft | 501 kts | 72° |
| 2026-05-05 05:46 | 50.63761 | -22.25347 | 39379 ft | 501 kts | 72° |
| 2026-05-05 05:46 | 50.65572 | -22.14774 | 39381 ft | 501 kts | 72° |
| 2026-05-05 05:47 | 50.67379 | -22.04160 | 39376 ft | 501 kts | 72° |
| 2026-05-05 05:47 | 50.69174 | -21.93545 | 39375 ft | 501 kts | 72° |
| 2026-05-05 05:48 | 50.70961 | -21.82914 | 39361 ft | 501 kts | 72° |
| 2026-05-05 05:48 | 50.72737 | -21.72286 | 39370 ft | 501 kts | 73° |
| 2026-05-05 05:49 | 50.74502 | -21.61658 | 39371 ft | 501 kts | 73° |
| 2026-05-05 05:49 | 50.76249 | -21.51071 | 39369 ft | 501 kts | 73° |
| 2026-05-05 05:50 | 50.78007 | -21.40353 | 39373 ft | 501 kts | 73° |
| 2026-05-05 05:50 | 50.79733 | -21.29758 | 39363 ft | 501 kts | 73° |
| 2026-05-05 05:51 | 50.81444 | -21.19191 | 39367 ft | 501 kts | 73° |
| 2026-05-05 05:51 | 50.83182 | -21.08393 | 39354 ft | 501 kts | 73° |
| 2026-05-05 05:52 | 50.84891 | -20.97704 | 39355 ft | 501 kts | 73° |
| 2026-05-05 05:52 | 50.86588 | -20.87016 | 39360 ft | 500 kts | 73° |
| 2026-05-05 05:53 | 50.88275 | -20.76330 | 39358 ft | 501 kts | 73° |
| 2026-05-05 05:53 | 50.89953 | -20.65624 | 39355 ft | 500 kts | 74° |
| 2026-05-05 05:54 | 50.91621 | -20.54914 | 39348 ft | 500 kts | 74° |
| 2026-05-05 05:54 | 50.93276 | -20.44217 | 39346 ft | 500 kts | 74° |
| 2026-05-05 05:55 | 50.94926 | -20.33483 | 39347 ft | 500 kts | 74° |
| 2026-05-05 05:55 | 50.96561 | -20.22774 | 39344 ft | 500 kts | 74° |
| 2026-05-05 05:56 | 50.97913 | -20.13864 | 39341 ft | 500 kts | 74° |
| 2026-05-05 05:56 | 50.99530 | -20.03139 | 39339 ft | 500 kts | 75° |
| 2026-05-05 05:57 | 51.00054 | -19.97697 | 39358 ft | 501 kts | 87° |
| 2026-05-05 05:57 | 51.00171 | -19.92159 | 39334 ft | 503 kts | 86° |
| 2026-05-05 05:57 | 51.00387 | -19.81069 | 39340 ft | 502 kts | 86° |
| 2026-05-05 05:58 | 51.00604 | -19.70091 | 39336 ft | 502 kts | 86° |
| 2026-05-05 05:58 | 51.00806 | -19.58894 | 39330 ft | 502 kts | 86° |
| 2026-05-05 05:59 | 51.01000 | -19.47823 | 39332 ft | 502 kts | 86° |
| 2026-05-05 05:59 | 51.01181 | -19.36754 | 39326 ft | 501 kts | 87° |
| 2026-05-05 06:00 | 51.01352 | -19.25685 | 39327 ft | 502 kts | 87° |
| 2026-05-05 06:00 | 51.01513 | -19.14597 | 39325 ft | 502 kts | 87° |
| 2026-05-05 06:01 | 51.01663 | -19.03593 | 39322 ft | 502 kts | 87° |
| 2026-05-05 06:01 | 51.01802 | -18.92578 | 39315 ft | 501 kts | 87° |
| 2026-05-05 06:02 | 51.01932 | -18.81458 | 39313 ft | 502 kts | 87° |
| 2026-05-05 06:02 | 51.02051 | -18.70379 | 39319 ft | 501 kts | 87° |
| 2026-05-05 06:03 | 51.02159 | -18.59391 | 39307 ft | 501 kts | 88° |
| 2026-05-05 06:03 | 51.02257 | -18.48324 | 39315 ft | 501 kts | 88° |
| 2026-05-05 06:04 | 51.02344 | -18.37261 | 39311 ft | 501 kts | 88° |
| 2026-05-05 06:04 | 51.02422 | -18.26201 | 39304 ft | 501 kts | 88° |
| 2026-05-05 06:05 | 51.02488 | -18.15149 | 39302 ft | 501 kts | 88° |
| 2026-05-05 06:05 | 51.02545 | -18.04088 | 39300 ft | 501 kts | 88° |
| 2026-05-05 06:06 | 51.02590 | -17.93085 | 39301 ft | 500 kts | 88° |
| 2026-05-05 06:06 | 51.02626 | -17.81977 | 39297 ft | 500 kts | 88° |
| 2026-05-05 06:07 | 51.02651 | -17.70942 | 39288 ft | 500 kts | 88° |
| 2026-05-05 06:07 | 51.02665 | -17.59933 | 39282 ft | 500 kts | 88° |
| 2026-05-05 06:08 | 51.02670 | -17.48864 | 39280 ft | 499 kts | 88° |
| 2026-05-05 06:08 | 51.02663 | -17.37837 | 39286 ft | 499 kts | 88° |
| 2026-05-05 06:09 | 51.02646 | -17.26798 | 39273 ft | 499 kts | 89° |
| 2026-05-05 06:09 | 51.02620 | -17.15855 | 39270 ft | 499 kts | 89° |
| 2026-05-05 06:10 | 51.02583 | -17.04830 | 39267 ft | 499 kts | 89° |
| 2026-05-05 06:10 | 51.02536 | -16.93975 | 39266 ft | 499 kts | 89° |
| 2026-05-05 06:11 | 51.02476 | -16.82805 | 39263 ft | 499 kts | 89° |
| 2026-05-05 06:11 | 51.02409 | -16.71791 | 39261 ft | 499 kts | 89° |
| 2026-05-05 06:12 | 51.02330 | -16.60778 | 39260 ft | 498 kts | 89° |
| 2026-05-05 06:12 | 51.02241 | -16.49776 | 39258 ft | 498 kts | 89° |
| 2026-05-05 06:13 | 51.02141 | -16.38767 | 39259 ft | 498 kts | 89° |
| 2026-05-05 06:13 | 51.02032 | -16.27770 | 39254 ft | 498 kts | 89° |
| 2026-05-05 06:14 | 51.01912 | -16.16778 | 39246 ft | 497 kts | 89° |
| 2026-05-05 06:14 | 51.01782 | -16.05804 | 39245 ft | 497 kts | 90° |
| 2026-05-05 06:15 | 51.01644 | -15.95015 | 39246 ft | 497 kts | 90° |
| 2026-05-05 06:15 | 51.01491 | -15.83863 | 39243 ft | 497 kts | 90° |
| 2026-05-05 06:16 | 51.01332 | -15.72974 | 39243 ft | 496 kts | 90° |
| 2026-05-05 06:16 | 51.01161 | -15.62027 | 39238 ft | 496 kts | 90° |
| 2026-05-05 06:17 | 51.00980 | -15.51069 | 39236 ft | 496 kts | 90° |
| 2026-05-05 06:17 | 51.00789 | -15.40110 | 39232 ft | 496 kts | 90° |
| 2026-05-05 06:18 | 51.00588 | -15.29163 | 39229 ft | 496 kts | 90° |
| 2026-05-05 06:18 | 51.00376 | -15.18214 | 39229 ft | 496 kts | 90° |
| 2026-05-05 06:19 | 51.00154 | -15.07280 | 39228 ft | 496 kts | 90° |
| 2026-05-05 06:19 | 51.00038 | -14.96360 | 39225 ft | 494 kts | 88° |
| 2026-05-05 06:20 | 51.00045 | -14.85438 | 39221 ft | 494 kts | 89° |
| 2026-05-05 06:20 | 51.00085 | -14.74554 | 39214 ft | 493 kts | 88° |
| 2026-05-05 06:21 | 51.00100 | -14.63646 | 39213 ft | 494 kts | 89° |
| 2026-05-05 06:21 | 51.00107 | -14.52738 | 39206 ft | 494 kts | 88° |
| 2026-05-05 06:22 | 51.00106 | -14.41915 | 39202 ft | 494 kts | 89° |
| 2026-05-05 06:22 | 51.00092 | -14.30942 | 39202 ft | 494 kts | 89° |
| 2026-05-05 06:23 | 51.00071 | -14.20131 | 39199 ft | 494 kts | 89° |
| 2026-05-05 06:23 | 51.00037 | -14.09222 | 39201 ft | 494 kts | 89° |
| 2026-05-05 06:24 | 51.00098 | -13.98331 | 39205 ft | 491 kts | 82° |
| 2026-05-05 06:24 | 51.00809 | -13.87533 | 39189 ft | 493 kts | 82° |
| 2026-05-05 06:25 | 51.01493 | -13.76700 | 39189 ft | 493 kts | 83° |
| 2026-05-05 06:25 | 51.02172 | -13.65864 | 39187 ft | 493 kts | 83° |
| 2026-05-05 06:26 | 51.02839 | -13.55041 | 39182 ft | 492 kts | 83° |
| 2026-05-05 06:26 | 51.03495 | -13.44215 | 39187 ft | 492 kts | 83° |
| 2026-05-05 06:27 | 51.04462 | -13.27959 | 39181 ft | 492 kts | 83° |
| 2026-05-05 06:28 | 51.05090 | -13.17200 | 39181 ft | 492 kts | 83° |
| 2026-05-05 06:28 | 51.05716 | -13.06289 | 39174 ft | 492 kts | 83° |
| 2026-05-05 06:29 | 51.06328 | -12.95452 | 39174 ft | 492 kts | 83° |
| 2026-05-05 06:29 | 51.06929 | -12.84624 | 39170 ft | 492 kts | 83° |
| 2026-05-05 06:30 | 51.07519 | -12.73798 | 39170 ft | 491 kts | 84° |
| 2026-05-05 06:30 | 51.08100 | -12.62973 | 39168 ft | 491 kts | 84° |
| 2026-05-05 06:31 | 51.08670 | -12.52152 | 39164 ft | 491 kts | 84° |
| 2026-05-05 06:31 | 51.09229 | -12.41344 | 39164 ft | 490 kts | 84° |
| 2026-05-05 06:32 | 51.09775 | -12.30614 | 39158 ft | 490 kts | 84° |
| 2026-05-05 06:32 | 51.10313 | -12.19813 | 39158 ft | 489 kts | 84° |
| 2026-05-05 06:33 | 51.10842 | -12.09019 | 39156 ft | 489 kts | 84° |
| 2026-05-05 06:33 | 51.11360 | -11.98220 | 39155 ft | 489 kts | 84° |
| 2026-05-05 06:34 | 51.11869 | -11.87437 | 39153 ft | 489 kts | 84° |
| 2026-05-05 06:34 | 51.12366 | -11.76653 | 39151 ft | 488 kts | 84° |
| 2026-05-05 06:35 | 51.12854 | -11.65878 | 39150 ft | 488 kts | 84° |
| 2026-05-05 06:35 | 51.13331 | -11.55105 | 39148 ft | 488 kts | 85° |
| 2026-05-05 06:36 | 51.13798 | -11.44337 | 39145 ft | 488 kts | 85° |
| 2026-05-05 06:36 | 51.14256 | -11.33563 | 39145 ft | 488 kts | 85° |
| 2026-05-05 06:37 | 51.14703 | -11.22781 | 39143 ft | 488 kts | 85° |
| 2026-05-05 06:37 | 51.15141 | -11.12010 | 39138 ft | 488 kts | 85° |
| 2026-05-05 06:38 | 51.15567 | -11.01264 | 39140 ft | 488 kts | 85° |
| 2026-05-05 06:38 | 51.15988 | -10.90425 | 39135 ft | 488 kts | 85° |
| 2026-05-05 06:39 | 51.16395 | -10.79644 | 39134 ft | 488 kts | 85° |
| 2026-05-05 06:39 | 51.16793 | -10.68856 | 39136 ft | 487 kts | 85° |
| 2026-05-05 06:40 | 51.17181 | -10.58078 | 39133 ft | 488 kts | 85° |
| 2026-05-05 06:40 | 51.17559 | -10.47283 | 39128 ft | 487 kts | 85° |
| 2026-05-05 06:41 | 51.17926 | -10.36502 | 39126 ft | 487 kts | 85° |
| 2026-05-05 06:41 | 51.18283 | -10.25791 | 39121 ft | 487 kts | 85° |
| 2026-05-05 06:42 | 51.18630 | -10.15018 | 39123 ft | 486 kts | 86° |
| 2026-05-05 06:42 | 51.18967 | -10.04290 | 39123 ft | 486 kts | 86° |
| 2026-05-05 06:43 | 51.19295 | -9.93491 | 39119 ft | 486 kts | 86° |
| 2026-05-05 06:43 | 51.19612 | -9.82738 | 39120 ft | 485 kts | 86° |
| 2026-05-05 06:44 | 51.19920 | -9.71996 | 39118 ft | 485 kts | 86° |
| 2026-05-05 06:44 | 51.20217 | -9.61267 | 39119 ft | 484 kts | 86° |
| 2026-05-05 06:45 | 51.20503 | -9.50546 | 39120 ft | 484 kts | 86° |
| 2026-05-05 06:45 | 51.20780 | -9.39849 | 39113 ft | 482 kts | 86° |
| 2026-05-05 06:46 | 51.21046 | -9.29152 | 39114 ft | 483 kts | 86° |
| 2026-05-05 06:46 | 51.21261 | -9.20259 | 39115 ft | 483 kts | 86° |
| 2026-05-05 06:47 | 51.21509 | -9.09566 | 39112 ft | 482 kts | 86° |
| 2026-05-05 06:47 | 51.21748 | -8.98879 | 39109 ft | 482 kts | 86° |
| 2026-05-05 06:48 | 51.21977 | -8.88186 | 39105 ft | 482 kts | 86° |
| 2026-05-05 06:48 | 51.22196 | -8.77503 | 39105 ft | 481 kts | 86° |
| 2026-05-05 06:49 | 51.22404 | -8.66904 | 39103 ft | 481 kts | 86° |
| 2026-05-05 06:49 | 51.22604 | -8.56186 | 39100 ft | 480 kts | 86° |
| 2026-05-05 06:50 | 51.22793 | -8.45561 | 39099 ft | 479 kts | 87° |
| 2026-05-05 06:50 | 51.22973 | -8.34924 | 39096 ft | 480 kts | 87° |
| 2026-05-05 06:51 | 51.23143 | -8.24264 | 39096 ft | 481 kts | 87° |
| 2026-05-05 06:51 | 51.23304 | -8.13610 | 39097 ft | 480 kts | 87° |
| 2026-05-05 06:52 | 51.23454 | -8.02952 | 39091 ft | 480 kts | 87° |
| 2026-05-05 06:52 | 51.23594 | -7.92412 | 39089 ft | 479 kts | 87° |
| 2026-05-05 06:53 | 51.23725 | -7.81754 | 39089 ft | 480 kts | 88° |
| 2026-05-05 06:53 | 51.23847 | -7.71105 | 39088 ft | 480 kts | 88° |
| 2026-05-05 06:54 | 51.23959 | -7.60456 | 39087 ft | 480 kts | 88° |
| 2026-05-05 06:54 | 51.23869 | -7.49823 | 39081 ft | 479 kts | 90° |
| 2026-05-05 06:55 | 51.23761 | -7.39194 | 39083 ft | 478 kts | 90° |
| 2026-05-05 06:55 | 51.23571 | -7.28562 | 39082 ft | 480 kts | 90° |
| 2026-05-05 06:56 | 51.23410 | -7.17914 | 39078 ft | 480 kts | 90° |
| 2026-05-05 06:56 | 51.23219 | -7.07260 | 39077 ft | 481 kts | 91° |
| 2026-05-05 06:57 | 51.23028 | -6.96595 | 39077 ft | 481 kts | 91° |
| 2026-05-05 06:57 | 51.22823 | -6.85938 | 39077 ft | 480 kts | 91° |
| 2026-05-05 06:58 | 51.22610 | -6.75289 | 39071 ft | 480 kts | 91° |
| 2026-05-05 06:58 | 51.22387 | -6.64641 | 39059 ft | 480 kts | 91° |
| 2026-05-05 06:59 | 51.22155 | -6.53991 | 39058 ft | 480 kts | 91° |
| 2026-05-05 06:59 | 51.21917 | -6.43517 | 39071 ft | 480 kts | 91° |
| 2026-05-05 07:00 | 51.21665 | -6.32875 | 39056 ft | 480 kts | 91° |
| 2026-05-05 07:00 | 51.21401 | -6.22143 | 39067 ft | 480 kts | 91° |
| 2026-05-05 07:01 | 51.21130 | -6.11490 | 39054 ft | 481 kts | 92° |
| 2026-05-05 07:01 | 51.20849 | -6.00835 | 39054 ft | 481 kts | 92° |
| 2026-05-05 07:02 | 51.20558 | -5.90189 | 39042 ft | 480 kts | 92° |
| 2026-05-05 07:02 | 51.20258 | -5.79542 | 39044 ft | 480 kts | 92° |
| 2026-05-05 07:03 | 51.19949 | -5.68913 | 39047 ft | 480 kts | 92° |
| 2026-05-05 07:03 | 51.19629 | -5.58271 | 39050 ft | 480 kts | 92° |
| 2026-05-05 07:04 | 51.19300 | -5.47632 | 39049 ft | 481 kts | 92° |
| 2026-05-05 07:04 | 51.18961 | -5.36986 | 39042 ft | 481 kts | 92° |
| 2026-05-05 07:05 | 51.18612 | -5.26332 | 39039 ft | 481 kts | 93° |
| 2026-05-05 07:05 | 51.18254 | -5.15686 | 39032 ft | 481 kts | 93° |
| 2026-05-05 07:06 | 51.17885 | -5.05041 | 39043 ft | 481 kts | 93° |
| 2026-05-05 07:06 | 51.17507 | -4.94383 | 39044 ft | 481 kts | 93° |
| 2026-05-05 07:07 | 51.17125 | -4.83881 | 39033 ft | 482 kts | 93° |
| 2026-05-05 07:07 | 51.16720 | -4.73047 | 39041 ft | 483 kts | 93° |
| 2026-05-05 07:08 | 51.16312 | -4.62359 | 39029 ft | 484 kts | 94° |
| 2026-05-05 07:08 | 51.15895 | -4.51721 | 39036 ft | 485 kts | 94° |
| 2026-05-05 07:09 | 51.15465 | -4.41002 | 39030 ft | 485 kts | 94° |
| 2026-05-05 07:09 | 51.15026 | -4.30290 | 39025 ft | 484 kts | 94° |
| 2026-05-05 07:10 | 51.14577 | -4.19580 | 39033 ft | 485 kts | 94° |
| 2026-05-05 07:10 | 51.14119 | -4.08872 | 39035 ft | 485 kts | 94° |
| 2026-05-05 07:11 | 51.13650 | -3.98170 | 39026 ft | 485 kts | 94° |
| 2026-05-05 07:11 | 51.13173 | -3.87483 | 39020 ft | 483 kts | 94° |
| 2026-05-05 07:12 | 51.12687 | -3.76833 | 39028 ft | 482 kts | 94° |
| 2026-05-05 07:12 | 51.12192 | -3.66187 | 39016 ft | 482 kts | 94° |
| 2026-05-05 07:13 | 51.11687 | -3.55542 | 39017 ft | 482 kts | 95° |
| 2026-05-05 07:13 | 51.11171 | -3.44894 | 39023 ft | 482 kts | 95° |
| 2026-05-05 07:14 | 51.10648 | -3.34261 | 39013 ft | 482 kts | 95° |
| 2026-05-05 07:14 | 51.10112 | -3.23603 | 39020 ft | 484 kts | 95° |
| 2026-05-05 07:15 | 51.09566 | -3.12915 | 39018 ft | 485 kts | 95° |
| 2026-05-05 07:15 | 51.09009 | -3.02213 | 39017 ft | 485 kts | 95° |
| 2026-05-05 07:16 | 51.08443 | -2.91528 | 39031 ft | 485 kts | 95° |
| 2026-05-05 07:16 | 51.07868 | -2.80854 | 39029 ft | 484 kts | 95° |
| 2026-05-05 07:17 | 51.07287 | -2.70260 | 39024 ft | 484 kts | 96° |
| 2026-05-05 07:17 | 51.06693 | -2.59598 | 39019 ft | 484 kts | 96° |
| 2026-05-05 07:18 | 51.06089 | -2.48924 | 39018 ft | 485 kts | 96° |
| 2026-05-05 07:18 | 51.05473 | -2.38240 | 39017 ft | 485 kts | 96° |
| 2026-05-05 07:19 | 51.04848 | -2.27558 | 39016 ft | 486 kts | 96° |
| 2026-05-05 07:19 | 51.04213 | -2.16879 | 39009 ft | 485 kts | 96° |
| 2026-05-05 07:20 | 51.03573 | -2.06274 | 38999 ft | 485 kts | 96° |
| 2026-05-05 07:20 | 51.03364 | -1.95547 | 38993 ft | 486 kts | 86° |
| 2026-05-05 07:21 | 51.03820 | -1.84871 | 39007 ft | 487 kts | 86° |
| 2026-05-05 07:21 | 51.04240 | -1.74172 | 38996 ft | 488 kts | 87° |
| 2026-05-05 07:22 | 51.04671 | -1.63277 | 38999 ft | 489 kts | 87° |
| 2026-05-05 07:22 | 51.05082 | -1.52491 | 38993 ft | 489 kts | 87° |
| 2026-05-05 07:23 | 51.05485 | -1.41699 | 38990 ft | 490 kts | 87° |
| 2026-05-05 07:23 | 51.05878 | -1.30881 | 38995 ft | 490 kts | 87° |
| 2026-05-05 07:24 | 51.06263 | -1.20050 | 38991 ft | 491 kts | 87° |
| 2026-05-05 07:24 | 51.06636 | -1.09234 | 38986 ft | 491 kts | 87° |
| 2026-05-05 07:25 | 51.07001 | -0.98372 | 38999 ft | 492 kts | 87° |
| 2026-05-05 07:25 | 51.07351 | -0.87666 | 38987 ft | 492 kts | 88° |
| 2026-05-05 07:26 | 51.07700 | -0.76654 | 38981 ft | 492 kts | 88° |
| 2026-05-05 07:26 | 51.08035 | -0.65787 | 38981 ft | 492 kts | 88° |
| 2026-05-05 07:27 | 51.08356 | -0.55047 | 38973 ft | 492 kts | 88° |
| 2026-05-05 07:27 | 51.08673 | -0.44098 | 38986 ft | 492 kts | 88° |
| 2026-05-05 07:28 | 51.08978 | -0.33217 | 38985 ft | 492 kts | 88° |
| 2026-05-05 07:28 | 51.09272 | -0.22335 | 38988 ft | 493 kts | 88° |
| 2026-05-05 07:29 | 51.09554 | -0.11566 | 38953 ft | 493 kts | 88° |
| 2026-05-05 07:29 | 51.09832 | -0.00547 | 38954 ft | 493 kts | 88° |
| 2026-05-05 07:30 | 51.10097 | 0.10368 | 38969 ft | 494 kts | 89° |
| 2026-05-05 07:30 | 51.10352 | 0.21287 | 39074 ft | 494 kts | 89° |
| 2026-05-05 07:30 | 51.10476 | 0.26744 | 39087 ft | 494 kts | 89° |
| 2026-05-05 07:31 | 51.10716 | 0.37678 | 39106 ft | 494 kts | 89° |
| 2026-05-05 07:31 | 51.10907 | 0.46754 | 39103 ft | 494 kts | 89° |
| 2026-05-05 07:32 | 51.11165 | 0.59532 | 39084 ft | 494 kts | 89° |
| 2026-05-05 07:32 | 51.11340 | 0.68633 | 39058 ft | 494 kts | 89° |
| 2026-05-05 07:33 | 51.11541 | 0.79574 | 38963 ft | 494 kts | 89° |
| 2026-05-05 07:33 | 51.11762 | 0.92304 | 38963 ft | 495 kts | 90° |
| 2026-05-05 07:34 | 51.11941 | 1.03242 | 38963 ft | 495 kts | 90° |
| 2026-05-05 07:34 | 51.12082 | 1.12347 | 38961 ft | 495 kts | 90° |
| 2026-05-05 07:35 | 51.12242 | 1.23289 | 38959 ft | 495 kts | 90° |
| 2026-05-05 07:35 | 51.12392 | 1.34241 | 38958 ft | 495 kts | 90° |
| 2026-05-05 07:36 | 51.12532 | 1.45207 | 38956 ft | 495 kts | 90° |
| 2026-05-05 07:36 | 51.12662 | 1.56179 | 38958 ft | 496 kts | 90° |
| 2026-05-05 07:37 | 51.12782 | 1.67246 | 38954 ft | 497 kts | 90° |
| 2026-05-05 07:37 | 51.12891 | 1.78164 | 38955 ft | 497 kts | 90° |
| 2026-05-05 07:38 | 51.12990 | 1.89187 | 38957 ft | 497 kts | 91° |
| 2026-05-05 07:38 | 51.13058 | 2.00188 | 38960 ft | 496 kts | 95° |
| 2026-05-05 07:39 | 51.12487 | 2.11123 | 38965 ft | 496 kts | 97° |
| 2026-05-05 07:39 | 51.11898 | 2.22077 | 38963 ft | 496 kts | 96° |
| 2026-05-05 07:40 | 51.11303 | 2.32934 | 38959 ft | 496 kts | 97° |
| 2026-05-05 07:40 | 51.10691 | 2.43865 | 38949 ft | 496 kts | 97° |
| 2026-05-05 07:41 | 51.10072 | 2.54799 | 38942 ft | 496 kts | 97° |
| 2026-05-05 07:41 | 51.09377 | 2.65701 | 38948 ft | 493 kts | 104° |
| 2026-05-05 07:42 | 51.07796 | 2.76307 | 38949 ft | 493 kts | 105° |
| 2026-05-05 07:42 | 51.06192 | 2.86917 | 38948 ft | 494 kts | 105° |
| 2026-05-05 07:43 | 51.04568 | 2.97560 | 39165 ft | 496 kts | 106° |
| 2026-05-05 07:43 | 51.03754 | 3.02874 | 39352 ft | 496 kts | 106° |
| 2026-05-05 07:43 | 51.02935 | 3.08207 | 39540 ft | 496 kts | 106° |
| 2026-05-05 07:44 | 51.02114 | 3.13529 | 39726 ft | 496 kts | 106° |
| 2026-05-05 07:44 | 51.01299 | 3.18794 | 39907 ft | 497 kts | 106° |
| 2026-05-05 07:44 | 51.00461 | 3.24191 | 40085 ft | 497 kts | 106° |
| 2026-05-05 07:44 | 50.99633 | 3.29511 | 40284 ft | 497 kts | 106° |
| 2026-05-05 07:45 | 50.98800 | 3.34842 | 40460 ft | 497 kts | 106° |
| 2026-05-05 07:45 | 50.97975 | 3.40108 | 40640 ft | 497 kts | 106° |
| 2026-05-05 07:45 | 50.97142 | 3.45404 | 40831 ft | 497 kts | 106° |
| 2026-05-05 07:45 | 50.96302 | 3.50724 | 40928 ft | 499 kts | 106° |
| 2026-05-05 07:46 | 50.94605 | 3.61430 | 40928 ft | 499 kts | 106° |
| 2026-05-05 07:46 | 50.92909 | 3.72061 | 40928 ft | 496 kts | 106° |
| 2026-05-05 07:47 | 50.91204 | 3.82671 | 40922 ft | 497 kts | 106° |
| 2026-05-05 07:47 | 50.89492 | 3.93266 | 40920 ft | 498 kts | 106° |
| 2026-05-05 07:48 | 50.87753 | 4.03824 | 40917 ft | 496 kts | 110° |
| 2026-05-05 07:48 | 50.85782 | 4.14361 | 40919 ft | 497 kts | 108° |
| 2026-05-05 07:49 | 50.83830 | 4.24841 | 40913 ft | 497 kts | 109° |
| 2026-05-05 07:49 | 50.81846 | 4.35307 | 40908 ft | 496 kts | 109° |
| 2026-05-05 07:50 | 50.79876 | 4.45751 | 40906 ft | 496 kts | 109° |
| 2026-05-05 07:50 | 50.77884 | 4.56170 | 40901 ft | 495 kts | 109° |
| 2026-05-05 07:51 | 50.75906 | 4.66514 | 40904 ft | 495 kts | 109° |
| 2026-05-05 07:51 | 50.73926 | 4.76775 | 40900 ft | 494 kts | 109° |
| 2026-05-05 07:52 | 50.71894 | 4.87276 | 40909 ft | 494 kts | 109° |
| 2026-05-05 07:52 | 50.69876 | 4.97630 | 40900 ft | 494 kts | 109° |
| 2026-05-05 07:53 | 50.67846 | 5.08002 | 40890 ft | 495 kts | 109° |
| 2026-05-05 07:53 | 50.65804 | 5.18372 | 40889 ft | 495 kts | 110° |
| 2026-05-05 07:54 | 50.63752 | 5.28737 | 40883 ft | 496 kts | 110° |
| 2026-05-05 07:54 | 50.61686 | 5.39119 | 40877 ft | 495 kts | 110° |
| 2026-05-05 07:55 | 50.59618 | 5.49455 | 40877 ft | 495 kts | 110° |
| 2026-05-05 07:55 | 50.57555 | 5.59713 | 40882 ft | 495 kts | 110° |
| 2026-05-05 07:56 | 50.55468 | 5.70038 | 40882 ft | 495 kts | 110° |
| 2026-05-05 07:56 | 50.53373 | 5.80343 | 40883 ft | 495 kts | 110° |
| 2026-05-05 07:57 | 50.51272 | 5.90630 | 40886 ft | 495 kts | 110° |
| 2026-05-05 07:57 | 50.49157 | 6.00924 | 40887 ft | 495 kts | 110° |
| 2026-05-05 07:58 | 50.47036 | 6.11202 | 40885 ft | 495 kts | 111° |
| 2026-05-05 07:58 | 50.44907 | 6.21458 | 40881 ft | 494 kts | 111° |
| 2026-05-05 07:59 | 50.42771 | 6.31705 | 40947 ft | 492 kts | 111° |
| 2026-05-05 07:59 | 50.41262 | 6.42187 | 41001 ft | 500 kts | 99° |
| 2026-05-05 08:00 | 50.40456 | 6.53023 | 40999 ft | 500 kts | 99° |
| 2026-05-05 08:00 | 50.39617 | 6.63817 | 41002 ft | 497 kts | 99° |
| 2026-05-05 08:01 | 50.38780 | 6.74561 | 40999 ft | 497 kts | 99° |
| 2026-05-05 08:01 | 50.37937 | 6.85239 | 40994 ft | 498 kts | 100° |
| 2026-05-05 08:02 | 50.37068 | 6.96100 | 40992 ft | 499 kts | 100° |
| 2026-05-05 08:02 | 50.36208 | 7.06746 | 40997 ft | 498 kts | 100° |
| 2026-05-05 08:03 | 50.35323 | 7.17559 | 40995 ft | 498 kts | 100° |
| 2026-05-05 08:03 | 50.34433 | 7.28312 | 40990 ft | 498 kts | 100° |
| 2026-05-05 08:04 | 50.33533 | 7.39058 | 40991 ft | 498 kts | 100° |
| 2026-05-05 08:04 | 50.32621 | 7.49828 | 40990 ft | 499 kts | 101° |
| 2026-05-05 08:05 | 50.31699 | 7.60596 | 40991 ft | 500 kts | 101° |
| 2026-05-05 08:05 | 50.30766 | 7.71370 | 40994 ft | 499 kts | 101° |
| 2026-05-05 08:06 | 50.29825 | 7.82118 | 40990 ft | 498 kts | 101° |
| 2026-05-05 08:06 | 50.28806 | 7.92823 | 41006 ft | 495 kts | 106° |
| 2026-05-05 08:07 | 50.27342 | 8.03348 | 41003 ft | 496 kts | 105° |
| 2026-05-05 08:07 | 50.25892 | 8.13861 | 41002 ft | 496 kts | 105° |
| 2026-05-05 08:08 | 50.24417 | 8.24393 | 41019 ft | 495 kts | 105° |
| 2026-05-05 08:08 | 50.22950 | 8.34837 | 40908 ft | 494 kts | 106° |
| 2026-05-05 08:09 | 50.21459 | 8.45361 | 40904 ft | 493 kts | 106° |
| 2026-05-05 08:09 | 50.19980 | 8.55735 | 40886 ft | 493 kts | 106° |
| 2026-05-05 08:10 | 50.18486 | 8.66141 | 40883 ft | 493 kts | 106° |
| 2026-05-05 08:10 | 50.16963 | 8.76673 | 40881 ft | 494 kts | 106° |
| 2026-05-05 08:11 | 50.15443 | 8.87114 | 40876 ft | 493 kts | 106° |
| 2026-05-05 08:11 | 50.13917 | 8.97527 | 40873 ft | 493 kts | 106° |
| 2026-05-05 08:12 | 50.12392 | 9.07867 | 40873 ft | 493 kts | 107° |
| 2026-05-05 08:12 | 50.10847 | 9.18269 | 40868 ft | 492 kts | 107° |
| 2026-05-05 08:13 | 50.09297 | 9.28635 | 40871 ft | 492 kts | 107° |
| 2026-05-05 08:13 | 50.07734 | 9.39019 | 40874 ft | 492 kts | 107° |
| 2026-05-05 08:14 | 50.06163 | 9.49388 | 40876 ft | 493 kts | 107° |
| 2026-05-05 08:14 | 50.04581 | 9.59763 | 40872 ft | 492 kts | 107° |
| 2026-05-05 08:15 | 50.02993 | 9.70113 | 40871 ft | 492 kts | 107° |
| 2026-05-05 08:15 | 50.01394 | 9.80464 | 40877 ft | 492 kts | 107° |
| 2026-05-05 08:16 | 49.99785 | 9.90813 | 40874 ft | 493 kts | 107° |
| 2026-05-05 08:16 | 49.98165 | 10.01167 | 40876 ft | 493 kts | 107° |
| 2026-05-05 08:17 | 49.96536 | 10.11510 | 40880 ft | 493 kts | 107° |
| 2026-05-05 08:17 | 49.94896 | 10.21863 | 40874 ft | 494 kts | 107° |
| 2026-05-05 08:18 | 49.93254 | 10.32163 | 40875 ft | 495 kts | 107° |
| 2026-05-05 08:18 | 49.91276 | 10.42400 | 40906 ft | 489 kts | 116° |
| 2026-05-05 08:19 | 49.88757 | 10.52179 | 40887 ft | 493 kts | 115° |
| 2026-05-05 08:19 | 49.86204 | 10.62035 | 40886 ft | 492 kts | 116° |
| 2026-05-05 08:20 | 49.84078 | 10.70205 | 40884 ft | 492 kts | 115° |
| 2026-05-05 08:20 | 49.81078 | 10.81700 | 40880 ft | 493 kts | 116° |
| 2026-05-05 08:21 | 49.78495 | 10.91540 | 40869 ft | 493 kts | 115° |
| 2026-05-05 08:21 | 49.75933 | 11.01266 | 40866 ft | 495 kts | 116° |
| 2026-05-05 08:22 | 49.73299 | 11.11217 | 40860 ft | 495 kts | 116° |
| 2026-05-05 08:22 | 49.71124 | 11.19405 | 40859 ft | 495 kts | 116° |
| 2026-05-05 08:23 | 49.68058 | 11.30896 | 40851 ft | 495 kts | 116° |
| 2026-05-05 08:23 | 49.65452 | 11.40668 | 40852 ft | 496 kts | 112° |
| 2026-05-05 08:24 | 49.63360 | 11.50706 | 40859 ft | 498 kts | 111° |
| 2026-05-05 08:24 | 49.61565 | 11.59346 | 40853 ft | 498 kts | 111° |
| 2026-05-05 08:25 | 49.59437 | 11.69521 | 40850 ft | 499 kts | 111° |
| 2026-05-05 08:25 | 49.57313 | 11.79659 | 40842 ft | 498 kts | 111° |
| 2026-05-05 08:26 | 49.55176 | 11.89781 | 40843 ft | 498 kts | 111° |
| 2026-05-05 08:26 | 49.53030 | 11.99915 | 40835 ft | 498 kts | 111° |
| 2026-05-05 08:27 | 49.50871 | 12.10045 | 40840 ft | 498 kts | 111° |
| 2026-05-05 08:27 | 49.48706 | 12.20165 | 40847 ft | 498 kts | 111° |
| 2026-05-05 08:28 | 49.46529 | 12.30280 | 40847 ft | 498 kts | 111° |
| 2026-05-05 08:28 | 49.44342 | 12.40398 | 40849 ft | 499 kts | 111° |
| 2026-05-05 08:29 | 49.42148 | 12.50497 | 40840 ft | 499 kts | 111° |
| 2026-05-05 08:30 | 49.38836 | 12.65649 | 40845 ft | 499 kts | 111° |
| 2026-05-05 08:30 | 49.36616 | 12.75734 | 40850 ft | 498 kts | 112° |
| 2026-05-05 08:31 | 49.34187 | 12.85662 | 40855 ft | 498 kts | 112° |
| 2026-05-05 08:31 | 49.31801 | 12.95531 | 40849 ft | 497 kts | 114° |
| 2026-05-05 08:32 | 49.29330 | 13.05497 | 40846 ft | 496 kts | 113° |
| 2026-05-05 08:32 | 49.26901 | 13.15397 | 40850 ft | 496 kts | 113° |
| 2026-05-05 08:33 | 49.24454 | 13.25228 | 40251 ft | 494 kts | 113° |
| 2026-05-05 08:33 | 49.23145 | 13.30097 | 39487 ft | 496 kts | 115° |
| 2026-05-05 08:33 | 49.21844 | 13.34985 | 38856 ft | 496 kts | 114° |
| 2026-05-05 08:33 | 49.20573 | 13.39870 | 38440 ft | 489 kts | 115° |
| 2026-05-05 08:34 | 49.19289 | 13.44645 | 37874 ft | 484 kts | 116° |
| 2026-05-05 08:34 | 49.17990 | 13.49371 | 37338 ft | 479 kts | 116° |
| 2026-05-05 08:34 | 49.16735 | 13.53993 | 36829 ft | 475 kts | 115° |
| 2026-05-05 08:34 | 49.15503 | 13.58589 | 36331 ft | 471 kts | 115° |
| 2026-05-05 08:35 | 49.14246 | 13.63236 | 35833 ft | 466 kts | 115° |
| 2026-05-05 08:35 | 49.13010 | 13.67759 | 35337 ft | 462 kts | 115° |
| 2026-05-05 08:35 | 49.11772 | 13.72287 | 34857 ft | 458 kts | 115° |
| 2026-05-05 08:35 | 49.10558 | 13.76745 | 34386 ft | 454 kts | 115° |
| 2026-05-05 08:36 | 49.09371 | 13.81094 | 33929 ft | 450 kts | 115° |
| 2026-05-05 08:36 | 49.08146 | 13.85559 | 33387 ft | 446 kts | 115° |
| 2026-05-05 08:36 | 49.06958 | 13.89882 | 32874 ft | 442 kts | 115° |
| 2026-05-05 08:36 | 49.05775 | 13.94186 | 32363 ft | 438 kts | 115° |
| 2026-05-05 08:37 | 49.04601 | 13.98448 | 31837 ft | 434 kts | 115° |
| 2026-05-05 08:37 | 49.03435 | 14.02669 | 31362 ft | 430 kts | 114° |
| 2026-05-05 08:37 | 49.02280 | 14.06845 | 30867 ft | 426 kts | 114° |
| 2026-05-05 08:37 | 49.01131 | 14.10995 | 30384 ft | 422 kts | 114° |
| 2026-05-05 08:38 | 48.99993 | 14.15094 | 29926 ft | 419 kts | 114° |
| 2026-05-05 08:38 | 48.98862 | 14.19165 | 29363 ft | 415 kts | 114° |
| 2026-05-05 08:38 | 48.97740 | 14.23195 | 28809 ft | 411 kts | 114° |
| 2026-05-05 08:38 | 48.96628 | 14.27181 | 28258 ft | 408 kts | 114° |
| 2026-05-05 08:39 | 48.95522 | 14.31138 | 27717 ft | 405 kts | 114° |
| 2026-05-05 08:39 | 48.94200 | 14.34870 | 27185 ft | 398 kts | 129° |
| 2026-05-05 08:39 | 48.92524 | 14.38201 | 26581 ft | 396 kts | 129° |
| 2026-05-05 08:39 | 48.90851 | 14.41513 | 26110 ft | 393 kts | 129° |
| 2026-05-05 08:40 | 48.89193 | 14.44791 | 25588 ft | 390 kts | 129° |
| 2026-05-05 08:40 | 48.87551 | 14.48042 | 25091 ft | 387 kts | 129° |
| 2026-05-05 08:40 | 48.85916 | 14.51280 | 24584 ft | 384 kts | 129° |
| 2026-05-05 08:40 | 48.84294 | 14.54483 | 24104 ft | 381 kts | 129° |
| 2026-05-05 08:41 | 48.82705 | 14.57614 | 23633 ft | 379 kts | 129° |
| 2026-05-05 08:41 | 48.81078 | 14.60818 | 23103 ft | 376 kts | 129° |
| 2026-05-05 08:41 | 48.79511 | 14.63902 | 22573 ft | 373 kts | 129° |
| 2026-05-05 08:41 | 48.77936 | 14.66999 | 22037 ft | 369 kts | 129° |
| 2026-05-05 08:42 | 48.76373 | 14.70066 | 21536 ft | 366 kts | 129° |
| 2026-05-05 08:42 | 48.74822 | 14.73107 | 21000 ft | 363 kts | 129° |
| 2026-05-05 08:42 | 48.73284 | 14.76120 | 20498 ft | 360 kts | 129° |
| 2026-05-05 08:42 | 48.71756 | 14.79110 | 19976 ft | 357 kts | 129° |
| 2026-05-05 08:43 | 48.70243 | 14.82064 | 19478 ft | 354 kts | 129° |
| 2026-05-05 08:43 | 48.68734 | 14.85004 | 18971 ft | 352 kts | 129° |
| 2026-05-05 08:43 | 48.67242 | 14.87912 | 18516 ft | 349 kts | 129° |
| 2026-05-05 08:43 | 48.65760 | 14.90796 | 18068 ft | 346 kts | 129° |
| 2026-05-05 08:44 | 48.64291 | 14.93653 | 17494 ft | 343 kts | 129° |
| 2026-05-05 08:44 | 48.62836 | 14.96480 | 16991 ft | 338 kts | 130° |
| 2026-05-05 08:44 | 48.61397 | 14.99270 | 16478 ft | 334 kts | 130° |
| 2026-05-05 08:44 | 48.59974 | 15.02029 | 15972 ft | 331 kts | 130° |
| 2026-05-05 08:45 | 48.58795 | 15.04985 | 15419 ft | 331 kts | 112° |
| 2026-05-05 08:45 | 48.58166 | 15.08231 | 14919 ft | 329 kts | 108° |
| 2026-05-05 08:45 | 48.57588 | 15.11646 | 14398 ft | 326 kts | 107° |
| 2026-05-05 08:45 | 48.57046 | 15.14957 | 13932 ft | 322 kts | 108° |
| 2026-05-05 08:46 | 48.56486 | 15.18211 | 13413 ft | 319 kts | 108° |
| 2026-05-05 08:46 | 48.55918 | 15.21443 | 12908 ft | 316 kts | 108° |
| 2026-05-05 08:46 | 48.55364 | 15.24633 | 12349 ft | 313 kts | 108° |
| 2026-05-05 08:46 | 48.54817 | 15.27808 | 11828 ft | 311 kts | 108° |
| 2026-05-05 08:47 | 48.54277 | 15.30933 | 11304 ft | 309 kts | 108° |
| 2026-05-05 08:47 | 48.53731 | 15.34071 | 10791 ft | 306 kts | 108° |
| 2026-05-05 08:47 | 48.53202 | 15.37107 | 10518 ft | 295 kts | 108° |
| 2026-05-05 08:47 | 48.52675 | 15.40133 | 10161 ft | 288 kts | 108° |
| 2026-05-05 08:48 | 48.52167 | 15.43024 | 9847 ft | 280 kts | 110° |
| 2026-05-05 08:48 | 48.51359 | 15.45523 | 9384 ft | 271 kts | 127° |
| 2026-05-05 08:48 | 48.50337 | 15.47996 | 8845 ft | 273 kts | 123° |
| 2026-05-05 08:48 | 48.49393 | 15.50461 | 8391 ft | 270 kts | 123° |
| 2026-05-05 08:49 | 48.48432 | 15.52884 | 7912 ft | 268 kts | 124° |
| 2026-05-05 08:49 | 48.47461 | 15.55275 | 7430 ft | 267 kts | 123° |
| 2026-05-05 08:49 | 48.46503 | 15.57649 | 7047 ft | 265 kts | 123° |
| 2026-05-05 08:49 | 48.45573 | 15.59971 | 6967 ft | 254 kts | 123° |
| 2026-05-05 08:50 | 48.44665 | 15.62224 | 6967 ft | 253 kts | 123° |
| 2026-05-05 08:50 | 48.43745 | 15.64502 | 6965 ft | 252 kts | 123° |
| 2026-05-05 08:50 | 48.42835 | 15.66764 | 6972 ft | 254 kts | 123° |
| 2026-05-05 08:50 | 48.41916 | 15.69037 | 6966 ft | 254 kts | 123° |
| 2026-05-05 08:51 | 48.41012 | 15.71277 | 6717 ft | 249 kts | 123° |
| 2026-05-05 08:51 | 48.40104 | 15.73522 | 6282 ft | 251 kts | 123° |
| 2026-05-05 08:51 | 48.39224 | 15.75700 | 5965 ft | 248 kts | 123° |
| 2026-05-05 08:51 | 48.38319 | 15.77936 | 5973 ft | 245 kts | 123° |
| 2026-05-05 08:52 | 48.37418 | 15.80152 | 5979 ft | 249 kts | 123° |
| 2026-05-05 08:52 | 48.36517 | 15.82372 | 5970 ft | 248 kts | 123° |
| 2026-05-05 08:52 | 48.35615 | 15.84596 | 5982 ft | 250 kts | 123° |
| 2026-05-05 08:52 | 48.34708 | 15.86828 | 5980 ft | 250 kts | 124° |
| 2026-05-05 08:53 | 48.33802 | 15.89058 | 5980 ft | 250 kts | 124° |
| 2026-05-05 08:53 | 48.32896 | 15.91280 | 5981 ft | 249 kts | 124° |
| 2026-05-05 08:53 | 48.31992 | 15.93505 | 5969 ft | 249 kts | 124° |
| 2026-05-05 08:53 | 48.31088 | 15.95720 | 5981 ft | 249 kts | 124° |
| 2026-05-05 08:54 | 48.30234 | 15.97953 | 5965 ft | 243 kts | 117° |
| 2026-05-05 08:54 | 48.29534 | 16.00256 | 5962 ft | 242 kts | 119° |
| 2026-05-05 08:54 | 48.28780 | 16.02500 | 5961 ft | 239 kts | 119° |
| 2026-05-05 08:54 | 48.28049 | 16.04735 | 5976 ft | 240 kts | 118° |
| 2026-05-05 08:55 | 48.27324 | 16.07004 | 5965 ft | 240 kts | 118° |
| 2026-05-05 08:55 | 48.26582 | 16.09245 | 5970 ft | 240 kts | 120° |
| 2026-05-05 08:55 | 48.25850 | 16.11453 | 5965 ft | 238 kts | 119° |
| 2026-05-05 08:55 | 48.25123 | 16.13692 | 5969 ft | 240 kts | 119° |
| 2026-05-05 08:56 | 48.24575 | 16.15378 | 5976 ft | 242 kts | 120° |
| 2026-05-05 08:56 | 48.23948 | 16.17292 | 5853 ft | 247 kts | 120° |
| 2026-05-05 08:56 | 48.23194 | 16.19648 | 5530 ft | 249 kts | 119° |
| 2026-05-05 08:56 | 48.22442 | 16.21985 | 5190 ft | 247 kts | 118° |
| 2026-05-05 08:57 | 48.21694 | 16.24287 | 4864 ft | 243 kts | 119° |
| 2026-05-05 08:57 | 48.20965 | 16.26525 | 4560 ft | 242 kts | 118° |
| 2026-05-05 08:57 | 48.20230 | 16.28817 | 4212 ft | 237 kts | 118° |
| 2026-05-05 08:57 | 48.19546 | 16.30942 | 3885 ft | 217 kts | 119° |
| 2026-05-05 08:58 | 48.18893 | 16.32960 | 3603 ft | 213 kts | 120° |
| 2026-05-05 08:58 | 48.18253 | 16.34934 | 3318 ft | 209 kts | 120° |
| 2026-05-05 08:58 | 48.17620 | 16.36884 | 3052 ft | 203 kts | 119° |
| 2026-05-05 08:58 | 48.17031 | 16.38706 | 2803 ft | 186 kts | 120° |
| 2026-05-05 08:59 | 48.16494 | 16.40368 | 2547 ft | 167 kts | 121° |
| 2026-05-05 08:59 | 48.16014 | 16.41861 | 2345 ft | 156 kts | 120° |
| 2026-05-05 08:59 | 48.15554 | 16.43259 | 2117 ft | 147 kts | 122° |
| 2026-05-05 08:59 | 48.15101 | 16.44637 | 1908 ft | 147 kts | 120° |
| 2026-05-05 09:00 | 48.14677 | 16.45966 | 1731 ft | 140 kts | 119° |
| 2026-05-05 09:00 | 48.14256 | 16.47251 | 1545 ft | 142 kts | 118° |
| 2026-05-05 09:00 | 48.13797 | 16.48632 | 1388 ft | 146 kts | 120° |
| 2026-05-05 09:00 | 48.13363 | 16.50023 | 1179 ft | 146 kts | 116° |
| 2026-05-05 09:01 | 48.12935 | 16.51378 | 931 ft | 142 kts | 116° |
| 2026-05-05 09:01 | 48.12503 | 16.52679 | 736 ft | 135 kts | 120° |
| 2026-05-05 09:01 | 48.12103 | 16.53890 | 625 ft | 117 kts | 116° |
| 2026-05-05 09:01 | 48.11792 | 16.54846 | 627 ft | 90 kts | 116° |
| 2026-05-05 09:02 | 48.11575 | 16.55518 | 623 ft | 49 kts | 116° |
| 2026-05-05 09:02 | 48.11503 | 16.55891 | 616 ft | 33 kts | 89° |
| 2026-05-05 09:02 | 48.11515 | 16.56082 | 620 ft | 9 kts | 71° |
| 2026-05-05 09:02 | 48.11571 | 16.56161 | 624 ft | 11 kts | 26° |
| 2026-05-05 09:03 | 48.11624 | 16.56190 | 625 ft | 12 kts | 4° |
| 2026-05-05 09:03 | 48.11681 | 16.56118 | 627 ft | 10 kts | 300° |
| 2026-05-05 09:03 | 48.11711 | 16.56028 | 623 ft | 12 kts | 294° |
| 2026-05-05 09:03 | 48.11749 | 16.55899 | 625 ft | 11 kts | 295° |
| 2026-05-05 09:04 | 48.11802 | 16.55844 | 628 ft | 8 kts | 9° |
| 2026-05-05 09:04 | 48.11870 | 16.55884 | 626 ft | 9 kts | 26° |
| 2026-05-05 09:04 | 48.11881 | 16.55910 | 629 ft | 2 kts | 88° |
| 2026-05-05 09:04 | 48.11869 | 16.55959 | 627 ft | 7 kts | 120° |
| 2026-05-05 09:05 | 48.11857 | 16.55986 | 625 ft | 0 kts | 123° |